Hauptseite
METAR-TAF:

METAR-TAF

Flughäfen :

Čáslav, Tschechien

Breite: 49-56-23N, Länge: 15-22-55E, Höhe: 242 m

Beobachtung

Neuester Wetterbericht von vor 20 Minuten, um 19:00 UTC
Wind 6 kt aus Süd/Südwest
Temperatur 20°C
Luftfeuchtigkeit 73%
Luftdruck 1020 hPa
Sichtweite 10 km oder mehr
keine Wolken unter 1500 m und keine Kumulonimbus oder Gewitterwolken

METAR: LKCV 191900Z 21006KT CAVOK 20/15 Q1020 NOSIG RMK BLU BLU

Zeit: 21:20 (19:20 UTC)

Prognose

Neuester Wetterbericht von vor 2 Stunden und 20 Minuten, um 17:00 UTC
Gültige Prognose vom 19 um 18 UTC bis 20 um 18 UTC
Wind 6 kt aus Süd/Südwest
Sichtweite 10 km oder mehr
keine Wolken unter 1500 m und keine Kumulonimbus oder Gewitterwolken
Übergehend zu
vom 19 um 22 UTC bis 20 um 00 UTC
Wind 5 kt aus Ost/Südost

TAF: LKCV 191700Z 1918/2018 20006KT CAVOK BECMG 1922/2000 12005KT

Wetterbeobachtungen und Prognosen von mehr als 4000 Flughäfen (METAR und TAF Bericht).

Die verfügbaren Stationen werden durch gelbe und rote Markierungen auf der Karte dargestellt.

Führen Sie die Maus auf sie, um den Namen der Station zu sehen.

Darauf klicken, um die Beobachtung von Wetterbeobachtungen und Prognosen zu sehen.

Um die Karte zu ändern : klicken Sie auf den grünen Tasten mit einem schwarzen Kreuz Zum Vergrößern, auf den grünen Button mit einem Gedankenstrich zu verkleinern, oder auf die grünen Pfeile für benachbarte Karten.


METAR-TAF: